SLEE weather

Public forecast

Using degrees Celsius for public forecast. Weather courtesy of forecast.io.

Closest aviation weather report (METAR) to El Escondido Airport

Report is more than 6 hours old.

Closest report is Teniente Coronel Rafael Pab√≥n Airport, 13.1 nm (24.2 km) NNW. Retrieved 2020/08/05 18:00 UTC (6 days ago):

SLVM 051800Z 360G30KT 9999 NSC 36/15 Q1010

Closest aviation forecast (TAF) to El Escondido Airport

Forecast is more than 12 hours old.

Closest forecast is Yacuiba Airport, 34.0 nm (63.0 km) SSW. Retrieved 2020/08/09 12:45 UTC (2 days ago):

TAF SLYA 091000Z 0912/1012 00000KT 9999 NSC TX30/0919Z TN10/1011Z BECMG 0914/0916 04010KT BECMG 0923/1001 00000KT